Airfield :
LOGIN :

Register | Disclaimer

   EN    FR    IT 

 










Legend :    VFR   Marginal VFR   IFR   Intensive IFR   Very Intensive IFR
Visi :
Ceiling :
>= 8 km
>= 3000ft
5 to 8 km
1000 to 3000 ft
1500m to 5 km
500 to 1000 ft
800 to 1500m
200 to 500 ft
< 800m
< 200 ft
Symbols :   Thunderstorms  Fog  Heavy snow  Heavy precipitations  Wind > 20 kt
SIGMETs :     Misc.  Thunderstorms  Icing  Turbulence  Mountain Waves  Volcanic Ashes







- Airport Elevation : 336 ft
- IATA code : GCI
- Download approach charts


EGJB - Guernsey

CURRENT METAR :
  • 160650Z 33005KT 8000 -DZ FEW001 SCT002 BKN004 15/15 Q1023

EXPIRED METARs :
  • 160620Z 32005KT 8000 FEW001 SCT003 BKN005 15/15 Q1023
  • 160550Z 32004KT 280V360 3000 BR SCT001 BKN002 15/15 Q1022
  • 160520Z 34005KT 3000 BR FEW001 BKN002 16/15 Q1023
  • 160450Z 33007KT 1600 VCFG FEW000 BKN001 16/16 Q1023
  • 160420Z 33005KT 1000 R27/1000 VCFG SCT000 BKN001 16/16 Q1022
  • 160350Z 35004KT 0800 FG BKN000 BKN001 15/15 Q1022

TAF TAF EGJB
Valid from the 16 at 06:00 until the 16 at 15:00 UTC


160500Z 1606/1615 32006KT 2000 BR MIFG FEW000 BKN002
TEMPO 1606/1607 0300 FG BKN000
BECMG 1606/1608 9999 BKN006
PROB40
TEMPO 1608/1615 SCT006 BKN012
ATIS : +44 1481 238 957
No reported NOTAMs for that airfield.



MET'MAP, your aeronautical weather chart ! - Copyright ORBIFLY December 2007 - Disclaimer

ORBIFLY MET'MAP TEAM :

Programming & Development : Alexandra Zaïnal
Concept & Development : Baudouin d'Aumeries
Co-Development & Prog : Marc-Olivier Méhu
Technical & hardware support : Manuel Goepfert

Contact : metmap@orbifly.com




SOURCES & CREDITS :

   NOAA